sensor_id;sensor_type;location;lat;lon;timestamp;pressure;altitude;pressure_sealevel;temperature;humidity
71504;BME280;59323;50.874;7.028;2022-09-02T00:02:25;101320.63;;;18.15;46.52
71504;BME280;59323;50.874;7.028;2022-09-02T00:04:52;101322.59;;;18.11;47.00
71504;BME280;59323;50.874;7.028;2022-09-02T00:07:17;101313.59;;;18.03;47.40
71504;BME280;59323;50.874;7.028;2022-09-02T00:09:42;101315.97;;;18.01;47.48
71504;BME280;59323;50.874;7.028;2022-09-02T00:12:13;101324.63;;;18.03;47.67
71504;BME280;59323;50.874;7.028;2022-09-02T00:14:39;101320.69;;;18.04;47.63
71504;BME280;59323;50.874;7.028;2022-09-02T00:17:05;101330.91;;;18.04;47.79
71504;BME280;59323;50.874;7.028;2022-09-02T00:19:30;101318.72;;;18.01;47.51
71504;BME280;59323;50.874;7.028;2022-09-02T00:21:57;101311.69;;;17.97;47.38
71504;BME280;59323;50.874;7.028;2022-09-02T00:24:23;101320.72;;;17.94;47.56
71504;BME280;59323;50.874;7.028;2022-09-02T00:26:49;101317.19;;;17.93;47.82
71504;BME280;59323;50.874;7.028;2022-09-02T00:29:16;101305.44;;;17.89;47.78
71504;BME280;59323;50.874;7.028;2022-09-02T00:31:45;101309.38;;;17.85;47.89
71504;BME280;59323;50.874;7.028;2022-09-02T00:34:14;101307.03;;;17.83;47.97
71504;BME280;59323;50.874;7.028;2022-09-02T00:36:40;101291.75;;;17.75;48.26
71504;BME280;59323;50.874;7.028;2022-09-02T00:39:05;101294.53;;;17.71;48.42
71504;BME280;59323;50.874;7.028;2022-09-02T00:41:35;101305.91;;;17.70;48.32
71504;BME280;59323;50.874;7.028;2022-09-02T00:44:09;101301.59;;;17.65;48.85
71504;BME280;59323;50.874;7.028;2022-09-02T00:46:35;101308.25;;;17.71;49.03
71504;BME280;59323;50.874;7.028;2022-09-02T00:49:21;101297.28;;;17.64;48.95
71504;BME280;59323;50.874;7.028;2022-09-02T00:54:46;101291.00;;;17.57;49.24
71504;BME280;59323;50.874;7.028;2022-09-02T00:57:15;101283.56;;;17.50;49.52
71504;BME280;59323;50.874;7.028;2022-09-02T01:02:32;101290.63;;;17.51;49.42
71504;BME280;59323;50.874;7.028;2022-09-02T01:04:59;101295.75;;;17.46;49.65
71504;BME280;59323;50.874;7.028;2022-09-02T01:07:27;101309.09;;;17.47;49.64
71504;BME280;59323;50.874;7.028;2022-09-02T01:09:54;101293.41;;;17.37;49.52
71504;BME280;59323;50.874;7.028;2022-09-02T01:12:21;101289.88;;;17.33;49.34
71504;BME280;59323;50.874;7.028;2022-09-02T01:14:46;101298.91;;;17.37;49.60
71504;BME280;59323;50.874;7.028;2022-09-02T01:17:13;101290.28;;;17.35;49.45
71504;BME280;59323;50.874;7.028;2022-09-02T01:19:43;101301.25;;;17.35;49.68
71504;BME280;59323;50.874;7.028;2022-09-02T01:22:23;101294.22;;;17.34;50.04
71504;BME280;59323;50.874;7.028;2022-09-02T01:24:54;101301.25;;;17.35;50.04
71504;BME280;59323;50.874;7.028;2022-09-02T01:27:22;101290.31;;;17.24;50.29
71504;BME280;59323;50.874;7.028;2022-09-02T01:29:52;101287.97;;;17.19;50.37
71504;BME280;59323;50.874;7.028;2022-09-02T01:32:21;101295.81;;;17.21;50.67
71504;BME280;59323;50.874;7.028;2022-09-02T01:34:58;101299.34;;;17.21;50.48
71504;BME280;59323;50.874;7.028;2022-09-02T01:37:23;101285.22;;;17.16;50.44
71504;BME280;59323;50.874;7.028;2022-09-02T01:39:49;101286.78;;;17.17;50.71
71504;BME280;59323;50.874;7.028;2022-09-02T01:42:20;101288.75;;;17.16;50.92
71504;BME280;59323;50.874;7.028;2022-09-02T01:44:45;101278.19;;;17.07;50.64
71504;BME280;59323;50.874;7.028;2022-09-02T01:47:18;101278.97;;;17.08;51.04
71504;BME280;59323;50.874;7.028;2022-09-02T01:49:48;101273.88;;;16.99;50.96
71504;BME280;59323;50.874;7.028;2022-09-02T01:52:14;101290.34;;;17.14;51.04
71504;BME280;59323;50.874;7.028;2022-09-02T01:54:49;101271.53;;;16.98;51.50
71504;BME280;59323;50.874;7.028;2022-09-02T01:57:14;101263.31;;;16.91;51.38
71504;BME280;59323;50.874;7.028;2022-09-02T01:59:40;101276.25;;;16.97;51.38
71504;BME280;59323;50.874;7.028;2022-09-02T02:02:07;101277.03;;;16.98;51.60
71504;BME280;59323;50.874;7.028;2022-09-02T02:04:33;101265.25;;;16.90;51.32
71504;BME280;59323;50.874;7.028;2022-09-02T02:06:58;101275.06;;;16.91;51.46
71504;BME280;59323;50.874;7.028;2022-09-02T02:09:24;101266.81;;;16.84;51.59
71504;BME280;59323;50.874;7.028;2022-09-02T02:11:50;101278.56;;;16.85;51.89
71504;BME280;59323;50.874;7.028;2022-09-02T02:14:16;101273.50;;;16.79;51.94
71504;BME280;59323;50.874;7.028;2022-09-02T02:16:41;101277.81;;;16.77;51.86
71504;BME280;59323;50.874;7.028;2022-09-02T02:19:10;101272.31;;;16.73;51.76
71504;BME280;59323;50.874;7.028;2022-09-02T02:21:35;101286.44;;;16.79;51.65
71504;BME280;59323;50.874;7.028;2022-09-02T02:24:03;101280.16;;;16.71;51.83
71504;BME280;59323;50.874;7.028;2022-09-02T02:26:32;101278.19;;;16.72;52.08
71504;BME280;59323;50.874;7.028;2022-09-02T02:29:00;101283.69;;;16.72;51.66
71504;BME280;59323;50.874;7.028;2022-09-02T02:31:26;101273.88;;;16.71;52.12
71504;BME280;59323;50.874;7.028;2022-09-02T02:33:51;101278.19;;;16.72;51.85
71504;BME280;59323;50.874;7.028;2022-09-02T02:36:21;101280.16;;;16.68;52.10
71504;BME280;59323;50.874;7.028;2022-09-02T02:38:49;101276.25;;;16.69;52.15
71504;BME280;59323;50.874;7.028;2022-09-02T02:41:26;101285.25;;;16.73;52.22
71504;BME280;59323;50.874;7.028;2022-09-02T02:43:57;101280.13;;;16.64;52.43
71504;BME280;59323;50.874;7.028;2022-09-02T02:46:26;101275.03;;;16.63;52.36
71504;BME280;59323;50.874;7.028;2022-09-02T02:48:52;101273.50;;;16.65;52.41
71504;BME280;59323;50.874;7.028;2022-09-02T02:51:17;101281.72;;;16.69;52.10
71504;BME280;59323;50.874;7.028;2022-09-02T02:53:42;101286.81;;;16.70;52.58
71504;BME280;59323;50.874;7.028;2022-09-02T02:56:17;101286.03;;;16.70;52.32
71504;BME280;59323;50.874;7.028;2022-09-02T02:58:50;101282.13;;;16.67;52.68
71504;BME280;59323;50.874;7.028;2022-09-02T03:01:19;101288.41;;;16.68;52.87
71504;BME280;59323;50.874;7.028;2022-09-02T03:03:44;101287.22;;;16.65;52.93
71504;BME280;59323;50.874;7.028;2022-09-02T03:06:10;101275.44;;;16.58;53.04
71504;BME280;59323;50.874;7.028;2022-09-02T03:08:35;101287.19;;;16.62;52.79
71504;BME280;59323;50.874;7.028;2022-09-02T03:11:02;101275.03;;;16.56;52.82
71504;BME280;59323;50.874;7.028;2022-09-02T03:13:32;101267.59;;;16.53;52.86
71504;BME280;59323;50.874;7.028;2022-09-02T03:15:57;101273.47;;;16.51;52.73
71504;BME280;59323;50.874;7.028;2022-09-02T03:18:26;101278.56;;;16.53;52.82
71504;BME280;59323;50.874;7.028;2022-09-02T03:20:54;101276.22;;;16.55;53.00
71504;BME280;59323;50.874;7.028;2022-09-02T03:23:19;101271.13;;;16.53;52.68
71504;BME280;59323;50.874;7.028;2022-09-02T03:25:45;101269.16;;;16.50;52.84
71504;BME280;59323;50.874;7.028;2022-09-02T03:28:21;101271.91;;;16.54;52.74
71504;BME280;59323;50.874;7.028;2022-09-02T03:30:47;101271.50;;;16.48;53.17
71504;BME280;59323;50.874;7.028;2022-09-02T03:33:15;101273.47;;;16.55;53.28
71504;BME280;59323;50.874;7.028;2022-09-02T03:35:43;101269.94;;;16.51;53.17
71504;BME280;59323;50.874;7.028;2022-09-02T03:38:12;101269.16;;;16.50;53.43
71504;BME280;59323;50.874;7.028;2022-09-02T03:40:38;101261.31;;;16.48;53.18
71504;BME280;59323;50.874;7.028;2022-09-02T03:43:04;101267.19;;;16.47;52.88
71504;BME280;59323;50.874;7.028;2022-09-02T03:45:30;101273.84;;;16.46;53.07
71504;BME280;59323;50.874;7.028;2022-09-02T03:47:56;101275.44;;;16.43;53.09
71504;BME280;59323;50.874;7.028;2022-09-02T03:50:26;101267.19;;;16.43;53.45
71504;BME280;59323;50.874;7.028;2022-09-02T03:52:52;101260.53;;;16.37;53.45
71504;BME280;59323;50.874;7.028;2022-09-02T03:55:19;101273.06;;;16.38;53.50
71504;BME280;59323;50.874;7.028;2022-09-02T03:57:45;101271.91;;;16.36;53.55
71504;BME280;59323;50.874;7.028;2022-09-02T04:00:13;101269.94;;;16.33;53.82
71504;BME280;59323;50.874;7.028;2022-09-02T04:02:43;101262.88;;;16.28;54.17
71504;BME280;59323;50.874;7.028;2022-09-02T04:05:10;101260.91;;;16.29;54.10
71504;BME280;59323;50.874;7.028;2022-09-02T04:07:38;101267.97;;;16.33;54.27
71504;BME280;59323;50.874;7.028;2022-09-02T04:10:04;101260.91;;;16.32;54.22
71504;BME280;59323;50.874;7.028;2022-09-02T04:12:29;101254.66;;;16.35;54.59
71504;BME280;59323;50.874;7.028;2022-09-02T04:14:55;101260.13;;;16.42;54.70
71504;BME280;59323;50.874;7.028;2022-09-02T04:21:10;101263.66;;;16.39;53.53
71504;BME280;59323;50.874;7.028;2022-09-02T04:23:36;101264.06;;;16.38;53.20
71504;BME280;59323;50.874;7.028;2022-09-02T04:26:12;101258.97;;;16.36;53.76
71504;BME280;59323;50.874;7.028;2022-09-02T04:28:38;101264.06;;;16.41;53.93
71504;BME280;59323;50.874;7.028;2022-09-02T04:31:09;101255.44;;;16.39;53.57
71504;BME280;59323;50.874;7.028;2022-09-02T04:33:35;101253.88;;;16.31;53.43
71504;BME280;59323;50.874;7.028;2022-09-02T04:36:12;101261.31;;;16.34;52.99
71504;BME280;59323;50.874;7.028;2022-09-02T04:38:39;101245.63;;;16.28;52.58
71504;BME280;59323;50.874;7.028;2022-09-02T04:41:09;101259.75;;;16.30;53.23
71504;BME280;59323;50.874;7.028;2022-09-02T04:43:40;101238.53;;;16.20;53.57
71504;BME280;59323;50.874;7.028;2022-09-02T04:46:15;101256.56;;;16.24;53.18
71504;BME280;59323;50.874;7.028;2022-09-02T04:48:50;101263.22;;;16.23;53.29
71504;BME280;59323;50.874;7.028;2022-09-02T04:51:20;101245.59;;;16.17;53.07
71504;BME280;59323;50.874;7.028;2022-09-02T04:53:50;101258.13;;;16.14;53.07
71504;BME280;59323;50.874;7.028;2022-09-02T04:56:28;101256.94;;;16.12;53.46
71504;BME280;59323;50.874;7.028;2022-09-02T04:58:59;101255.78;;;16.13;53.36
71504;BME280;59323;50.874;7.028;2022-09-02T05:04:13;101256.56;;;16.13;53.51
71504;BME280;59323;50.874;7.028;2022-09-02T05:06:45;101261.25;;;16.16;53.47
71504;BME280;59323;50.874;7.028;2022-09-02T05:09:11;101247.16;;;16.07;53.65
71504;BME280;59323;50.874;7.028;2022-09-02T05:11:45;101255.78;;;16.09;53.61
71504;BME280;59323;50.874;7.028;2022-09-02T05:14:24;101246.38;;;16.10;53.74
71504;BME280;59323;50.874;7.028;2022-09-02T05:16:50;101254.22;;;16.15;53.56
71504;BME280;59323;50.874;7.028;2022-09-02T05:19:25;101255.78;;;16.16;53.70
71504;BME280;59323;50.874;7.028;2022-09-02T05:22:00;101237.75;;;16.15;53.78
71504;BME280;59323;50.874;7.028;2022-09-02T05:24:28;101251.88;;;16.21;53.88
71504;BME280;59323;50.874;7.028;2022-09-02T05:26:53;101245.19;;;16.18;54.00
71504;BME280;59323;50.874;7.028;2022-09-02T05:29:25;101248.72;;;16.23;53.71
71504;BME280;59323;50.874;7.028;2022-09-02T05:31:51;101255.81;;;16.34;53.33
71504;BME280;59323;50.874;7.028;2022-09-02T05:34:16;101253.88;;;16.28;53.69
71504;BME280;59323;50.874;7.028;2022-09-02T05:36:45;101258.56;;;16.34;53.17
71504;BME280;59323;50.874;7.028;2022-09-02T05:39:13;101258.56;;;16.38;53.16
71504;BME280;59323;50.874;7.028;2022-09-02T05:41:39;101243.28;;;16.33;53.41
71504;BME280;59323;50.874;7.028;2022-09-02T05:44:12;101248.38;;;16.31;53.43
71504;BME280;59323;50.874;7.028;2022-09-02T05:49:35;101246.44;;;16.35;53.77
71504;BME280;59323;50.874;7.028;2022-09-02T05:52:11;101252.31;;;16.37;53.81
71504;BME280;59323;50.874;7.028;2022-09-02T05:54:38;101255.81;;;16.38;53.41
71504;BME280;59323;50.874;7.028;2022-09-02T05:57:07;101251.53;;;16.47;53.36
71504;BME280;59323;50.874;7.028;2022-09-02T05:59:34;101259.34;;;16.45;53.60
71504;BME280;59323;50.874;7.028;2022-09-02T06:02:01;101262.09;;;16.45;53.52
71504;BME280;59323;50.874;7.028;2022-09-02T06:04:26;101251.13;;;16.53;53.39
71504;BME280;59323;50.874;7.028;2022-09-02T06:06:53;101258.19;;;16.57;53.25
71504;BME280;59323;50.874;7.028;2022-09-02T06:09:21;101264.44;;;16.65;53.41
71504;BME280;59323;50.874;7.028;2022-09-02T06:11:47;101262.13;;;16.70;53.12
71504;BME280;59323;50.874;7.028;2022-09-02T06:14:21;101269.19;;;16.71;53.13
71504;BME280;59323;50.874;7.028;2022-09-02T06:16:49;101265.25;;;16.69;53.35
71504;BME280;59323;50.874;7.028;2022-09-02T06:19:16;101263.69;;;16.75;53.04
71504;BME280;59323;50.874;7.028;2022-09-02T06:21:42;101260.53;;;16.80;52.81
71504;BME280;59323;50.874;7.028;2022-09-02T06:24:09;101264.47;;;16.90;53.15
71504;BME280;59323;50.874;7.028;2022-09-02T06:26:36;101259.38;;;16.95;52.95
71504;BME280;59323;50.874;7.028;2022-09-02T06:29:03;101274.25;;;17.12;52.36
71504;BME280;59323;50.874;7.028;2022-09-02T06:31:36;101259.31;;;17.17;52.61
71504;BME280;59323;50.874;7.028;2022-09-02T06:34:02;101251.88;;;17.14;52.52
71504;BME280;59323;50.874;7.028;2022-09-02T06:36:30;101260.50;;;17.23;52.44
71504;BME280;59323;50.874;7.028;2022-09-02T06:38:59;101265.94;;;17.33;52.19
71504;BME280;59323;50.874;7.028;2022-09-02T06:41:28;101263.19;;;17.40;51.65
71504;BME280;59323;50.874;7.028;2022-09-02T06:44:07;101250.63;;;17.39;51.69
71504;BME280;59323;50.874;7.028;2022-09-02T06:46:39;101254.16;;;17.40;51.63
71504;BME280;59323;50.874;7.028;2022-09-02T06:49:21;101265.50;;;17.49;51.79
71504;BME280;59323;50.874;7.028;2022-09-02T06:51:47;101248.63;;;17.43;51.77
71504;BME280;59323;50.874;7.028;2022-09-02T06:54:22;101246.25;;;17.49;51.33
71504;BME280;59323;50.874;7.028;2022-09-02T06:56:51;101252.13;;;17.58;51.17
71504;BME280;59323;50.874;7.028;2022-09-02T06:59:18;101248.94;;;17.74;51.32
71504;BME280;59323;50.874;7.028;2022-09-02T07:01:45;101254.00;;;17.83;51.23
71504;BME280;59323;50.874;7.028;2022-09-02T07:04:13;101250.84;;;17.88;50.84
71504;BME280;59323;50.874;7.028;2022-09-02T07:07:06;101241.84;;;17.84;50.78
71504;BME280;59323;50.874;7.028;2022-09-02T07:09:32;101236.69;;;17.89;51.29
71504;BME280;59323;50.874;7.028;2022-09-02T07:12:00;101242.88;;;18.04;51.49
71504;BME280;59323;50.874;7.028;2022-09-02T07:14:39;101242.84;;;18.11;51.04
71504;BME280;59323;50.874;7.028;2022-09-02T07:17:49;101243.81;;;18.42;50.63
71504;BME280;59323;50.874;7.028;2022-09-02T07:20:27;101240.31;;;18.86;50.31
71504;BME280;59323;50.874;7.028;2022-09-02T07:22:52;101238.31;;;18.90;49.34
71504;BME280;59323;50.874;7.028;2022-09-02T07:25:19;101236.94;;;19.09;48.44
71504;BME280;59323;50.874;7.028;2022-09-02T07:27:48;101238.63;;;19.33;48.11
71504;BME280;59323;50.874;7.028;2022-09-02T07:30:25;101229.19;;;19.31;48.05
71504;BME280;59323;50.874;7.028;2022-09-02T07:32:54;101240.72;;;19.60;47.77
71504;BME280;59323;50.874;7.028;2022-09-02T07:38:22;101228.00;;;20.23;46.90
71504;BME280;59323;50.874;7.028;2022-09-02T07:40:48;101229.09;;;20.53;45.88
71504;BME280;59323;50.874;7.028;2022-09-02T07:43:14;101228.84;;;20.91;44.50
71504;BME280;59323;50.874;7.028;2022-09-02T07:45:40;101224.13;;;21.11;44.32
71504;BME280;59323;50.874;7.028;2022-09-02T07:48:07;101230.47;;;21.51;44.98
71504;BME280;59323;50.874;7.028;2022-09-02T07:50:40;101223.34;;;21.70;43.30
71504;BME280;59323;50.874;7.028;2022-09-02T07:53:12;101220.66;;;21.66;42.57
71504;BME280;59323;50.874;7.028;2022-09-02T07:55:41;101228.13;;;21.86;42.59
71504;BME280;59323;50.874;7.028;2022-09-02T07:58:29;101230.34;;;22.10;42.24
71504;BME280;59323;50.874;7.028;2022-09-02T08:01:48;101231.25;;;22.24;42.13
71504;BME280;59323;50.874;7.028;2022-09-02T08:08:24;101221.13;;;22.33;41.03
71504;BME280;59323;50.874;7.028;2022-09-02T08:11:30;101223.88;;;22.33;40.85
71504;BME280;59323;50.874;7.028;2022-09-02T08:14:07;101220.25;;;22.36;40.54
71504;BME280;59323;50.874;7.028;2022-09-02T08:16:38;101220.56;;;22.55;40.17
71504;BME280;59323;50.874;7.028;2022-09-02T08:19:04;101228.53;;;22.85;40.18
71504;BME280;59323;50.874;7.028;2022-09-02T08:21:30;101228.53;;;23.14;39.48
71504;BME280;59323;50.874;7.028;2022-09-02T08:24:07;101220.34;;;23.23;39.01
71504;BME280;59323;50.874;7.028;2022-09-02T08:26:35;101216.09;;;23.48;39.20
71504;BME280;59323;50.874;7.028;2022-09-02T08:29:03;101222.44;;;23.48;38.29
71504;BME280;59323;50.874;7.028;2022-09-02T08:31:29;101222.16;;;23.71;38.42
71504;BME280;59323;50.874;7.028;2022-09-02T08:33:56;101214.34;;;23.54;38.93
71504;BME280;59323;50.874;7.028;2022-09-02T08:36:22;101225.47;;;23.79;38.04
71504;BME280;59323;50.874;7.028;2022-09-02T08:38:48;101221.16;;;23.78;37.91
71504;BME280;59323;50.874;7.028;2022-09-02T08:41:20;101215.16;;;23.80;37.79
71504;BME280;59323;50.874;7.028;2022-09-02T08:43:49;101224.47;;;23.86;38.61
71504;BME280;59323;50.874;7.028;2022-09-02T08:46:16;101209.81;;;23.85;37.82
71504;BME280;59323;50.874;7.028;2022-09-02T08:51:26;101211.38;;;23.86;37.33
71504;BME280;59323;50.874;7.028;2022-09-02T08:53:58;101208.50;;;24.15;38.12
71504;BME280;59323;50.874;7.028;2022-09-02T08:56:25;101212.25;;;24.21;37.10
71504;BME280;59323;50.874;7.028;2022-09-02T08:58:52;101208.63;;;24.12;36.82
71504;BME280;59323;50.874;7.028;2022-09-02T09:01:31;101205.59;;;24.19;37.17
71504;BME280;59323;50.874;7.028;2022-09-02T09:06:51;101204.16;;;24.74;36.76
71504;BME280;59323;50.874;7.028;2022-09-02T09:17:34;101195.06;;;24.74;35.84
71504;BME280;59323;50.874;7.028;2022-09-02T09:20:06;101187.03;;;24.76;35.54
71504;BME280;59323;50.874;7.028;2022-09-02T09:22:37;101190.53;;;24.89;35.01
71504;BME280;59323;50.874;7.028;2022-09-02T09:25:18;101187.84;;;24.98;35.21
71504;BME280;59323;50.874;7.028;2022-09-02T09:27:44;101181.84;;;25.00;34.52
71504;BME280;59323;50.874;7.028;2022-09-02T09:30:11;101179.38;;;25.02;34.65
71504;BME280;59323;50.874;7.028;2022-09-02T09:32:42;101181.69;;;25.03;34.87
71504;BME280;59323;50.874;7.028;2022-09-02T09:35:11;101173.09;;;25.10;34.83
71504;BME280;59323;50.874;7.028;2022-09-02T09:37:43;101170.38;;;25.19;34.41
71504;BME280;59323;50.874;7.028;2022-09-02T09:50:48;101162.28;;;26.05;32.43
71504;BME280;59323;50.874;7.028;2022-09-02T09:58:31;101145.78;;;26.57;31.18
71504;BME280;59323;50.874;7.028;2022-09-02T10:00:57;101148.88;;;26.86;29.92
71504;BME280;59323;50.874;7.028;2022-09-02T10:03:28;101141.16;;;26.72;29.93
71504;BME280;59323;50.874;7.028;2022-09-02T10:12:19;101131.38;;;26.49;29.73
71504;BME280;59323;50.874;7.028;2022-09-02T10:15:28;101126.44;;;26.71;29.48
71504;BME280;59323;50.874;7.028;2022-09-02T10:46:05;101093.97;;;27.10;26.42
71504;BME280;59323;50.874;7.028;2022-09-02T10:51:56;101091.13;;;27.29;25.68
71504;BME280;59323;50.874;7.028;2022-09-02T10:54:50;101100.28;;;27.20;25.54
71504;BME280;59323;50.874;7.028;2022-09-02T10:57:29;101090.22;;;27.23;25.89
71504;BME280;59323;50.874;7.028;2022-09-02T11:00:37;101094.97;;;27.40;25.87
71504;BME280;59323;50.874;7.028;2022-09-02T11:03:28;101108.22;;;27.55;24.69
71504;BME280;59323;50.874;7.028;2022-09-02T11:06:34;101071.34;;;27.51;25.73
71504;BME280;59323;50.874;7.028;2022-09-02T11:09:36;101092.00;;;27.44;25.15
71504;BME280;59323;50.874;7.028;2022-09-02T11:12:30;101093.97;;;27.53;24.95
71504;BME280;59323;50.874;7.028;2022-09-02T11:21:07;101086.88;;;27.75;25.93
71504;BME280;59323;50.874;7.028;2022-09-02T11:33:33;101080.53;;;27.42;24.77
71504;BME280;59323;50.874;7.028;2022-09-02T11:36:30;101065.47;;;26.97;25.44
71504;BME280;59323;50.874;7.028;2022-09-02T11:45:56;101053.88;;;26.99;25.77
71504;BME280;59323;50.874;7.028;2022-09-02T11:54:19;101049.75;;;26.58;26.33
71504;BME280;59323;50.874;7.028;2022-09-02T11:56:58;101062.47;;;26.68;26.50
71504;BME280;59323;50.874;7.028;2022-09-02T12:02:50;101052.16;;;26.92;26.05
71504;BME280;59323;50.874;7.028;2022-09-02T12:05:48;101051.38;;;26.92;25.91
71504;BME280;59323;50.874;7.028;2022-09-02T12:11:05;101029.41;;;26.84;25.29
71504;BME280;59323;50.874;7.028;2022-09-02T12:13:49;101034.09;;;26.78;25.83
71504;BME280;59323;50.874;7.028;2022-09-02T12:21:30;101028.66;;;26.66;25.86
71504;BME280;59323;50.874;7.028;2022-09-02T12:24:19;101015.84;;;26.68;25.62
71504;BME280;59323;50.874;7.028;2022-09-02T12:31:51;101030.25;;;26.48;26.38
71504;BME280;59323;50.874;7.028;2022-09-02T12:41:13;101013.50;;;26.58;26.09
71504;BME280;59323;50.874;7.028;2022-09-02T12:47:03;101012.94;;;26.96;26.39
71504;BME280;59323;50.874;7.028;2022-09-02T12:56:03;100988.03;;;26.83;26.17
71504;BME280;59323;50.874;7.028;2022-09-02T12:58:57;100990.97;;;26.89;26.90
71504;BME280;59323;50.874;7.028;2022-09-02T13:01:51;100992.81;;;26.92;26.35
71504;BME280;59323;50.874;7.028;2022-09-02T13:23:17;100967.56;;;26.35;27.52
71504;BME280;59323;50.874;7.028;2022-09-02T13:26:12;100972.97;;;26.29;27.61
71504;BME280;59323;50.874;7.028;2022-09-02T13:32:09;100975.16;;;26.34;28.01
71504;BME280;59323;50.874;7.028;2022-09-02T13:35:05;100960.13;;;26.22;27.74
71504;BME280;59323;50.874;7.028;2022-09-02T13:37:59;100968.97;;;26.12;27.45
71504;BME280;59323;50.874;7.028;2022-09-02T13:40:52;100948.09;;;26.16;27.42
71504;BME280;59323;50.874;7.028;2022-09-02T13:44:19;100948.19;;;26.31;27.29
71504;BME280;59323;50.874;7.028;2022-09-02T13:46:53;100949.75;;;26.32;27.01
71504;BME280;59323;50.874;7.028;2022-09-02T13:49:26;100925.47;;;26.23;26.89
71504;BME280;59323;50.874;7.028;2022-09-02T13:51:58;100932.22;;;26.50;26.56
71504;BME280;59323;50.874;7.028;2022-09-02T13:54:38;100925.91;;;26.40;26.59
71504;BME280;59323;50.874;7.028;2022-09-02T13:57:59;100926.03;;;26.46;26.36
71504;BME280;59323;50.874;7.028;2022-09-02T14:00:35;100917.81;;;26.51;26.98
71504;BME280;59323;50.874;7.028;2022-09-02T14:03:36;100913.06;;;26.43;26.50
71504;BME280;59323;50.874;7.028;2022-09-02T14:09:33;100924.06;;;26.37;26.28
71504;BME280;59323;50.874;7.028;2022-09-02T14:12:20;100911.84;;;26.35;26.88
71504;BME280;59323;50.874;7.028;2022-09-02T14:14:49;100919.72;;;26.27;26.27
71504;BME280;59323;50.874;7.028;2022-09-02T14:17:30;100906.41;;;26.31;25.97
71504;BME280;59323;50.874;7.028;2022-09-02T14:20:35;100895.88;;;26.35;26.03
71504;BME280;59323;50.874;7.028;2022-09-02T14:23:20;100904.09;;;26.39;25.78
71504;BME280;59323;50.874;7.028;2022-09-02T14:26:03;100899.91;;;26.34;25.75
71504;BME280;59323;50.874;7.028;2022-09-02T14:28:36;100895.88;;;26.26;26.13
71504;BME280;59323;50.874;7.028;2022-09-02T14:31:30;100900.06;;;26.31;25.63
71504;BME280;59323;50.874;7.028;2022-09-02T14:43:50;100863.72;;;26.16;26.27
71504;BME280;59323;50.874;7.028;2022-09-02T14:46:33;100877.19;;;26.17;25.75
71504;BME280;59323;50.874;7.028;2022-09-02T14:51:51;100879.22;;;26.08;25.81
71504;BME280;59323;50.874;7.028;2022-09-02T14:54:43;100893.13;;;26.17;26.32
71504;BME280;59323;50.874;7.028;2022-09-02T15:03:56;100871.50;;;25.84;26.51
71504;BME280;59323;50.874;7.028;2022-09-02T15:06:34;100863.78;;;25.79;26.34
71504;BME280;59323;50.874;7.028;2022-09-02T15:09:07;100867.94;;;25.93;26.02
71504;BME280;59323;50.874;7.028;2022-09-02T15:14:47;100861.28;;;25.90;26.46
71504;BME280;59323;50.874;7.028;2022-09-02T15:17:16;100864.72;;;25.85;26.62
71504;BME280;59323;50.874;7.028;2022-09-02T15:23:10;100858.06;;;25.83;27.21
71504;BME280;59323;50.874;7.028;2022-09-02T15:25:39;100863.78;;;25.88;27.31
71504;BME280;59323;50.874;7.028;2022-09-02T15:28:32;100848.03;;;25.76;27.12
71504;BME280;59323;50.874;7.028;2022-09-02T15:30:59;100844.94;;;25.74;27.28
71504;BME280;59323;50.874;7.028;2022-09-02T15:33:25;100854.81;;;25.84;26.82
71504;BME280;59323;50.874;7.028;2022-09-02T15:36:14;100847.09;;;25.70;26.70
71504;BME280;59323;50.874;7.028;2022-09-02T15:39:14;100860.72;;;25.68;26.97
71504;BME280;59323;50.874;7.028;2022-09-02T15:42:11;100861.63;;;25.65;27.29
71504;BME280;59323;50.874;7.028;2022-09-02T15:44:38;100840.59;;;25.46;27.80
71504;BME280;59323;50.874;7.028;2022-09-02T15:47:26;100847.25;;;25.48;27.76
71504;BME280;59323;50.874;7.028;2022-09-02T15:49:56;100843.06;;;25.44;26.99
71504;BME280;59323;50.874;7.028;2022-09-02T15:55:17;100848.03;;;25.49;27.30
71504;BME280;59323;50.874;7.028;2022-09-02T15:57:53;100841.53;;;25.43;27.06
71504;BME280;59323;50.874;7.028;2022-09-02T16:00:19;100851.28;;;25.38;27.48
71504;BME280;59323;50.874;7.028;2022-09-02T16:03:01;100835.47;;;25.26;27.63
71504;BME280;59323;50.874;7.028;2022-09-02T16:05:30;100829.28;;;25.22;28.77
71504;BME280;59323;50.874;7.028;2022-09-02T16:07:56;100843.97;;;25.32;28.19
71504;BME280;59323;50.874;7.028;2022-09-02T16:10:22;100831.16;;;25.25;27.93
71504;BME280;59323;50.874;7.028;2022-09-02T16:12:50;100839.97;;;25.23;28.38
71504;BME280;59323;50.874;7.028;2022-09-02T16:15:18;100829.13;;;25.16;27.81
71504;BME280;59323;50.874;7.028;2022-09-02T16:17:44;100830.53;;;25.21;27.60
71504;BME280;59323;50.874;7.028;2022-09-02T16:20:22;100824.81;;;25.15;27.21
71504;BME280;59323;50.874;7.028;2022-09-02T16:22:51;100822.66;;;25.10;27.51
71504;BME280;59323;50.874;7.028;2022-09-02T16:25:16;100831.75;;;25.11;28.29
71504;BME280;59323;50.874;7.028;2022-09-02T16:27:45;100825.44;;;25.10;27.55
71504;BME280;59323;50.874;7.028;2022-09-02T16:30:32;100823.72;;;25.04;28.02
71504;BME280;59323;50.874;7.028;2022-09-02T16:33:04;100820.94;;;25.04;27.89
71504;BME280;59323;50.874;7.028;2022-09-02T16:35:30;100814.59;;;25.03;28.71
71504;BME280;59323;50.874;7.028;2022-09-02T16:37:55;100804.53;;;24.96;28.42
71504;BME280;59323;50.874;7.028;2022-09-02T16:43:36;100807.66;;;24.99;28.36
71504;BME280;59323;50.874;7.028;2022-09-02T16:49:14;100801.28;;;24.89;28.17
71504;BME280;59323;50.874;7.028;2022-09-02T16:51:43;100806.53;;;24.87;27.99